createdAt,value
2022-11-02T00:00:15.750Z,13.13
2022-11-02T00:02:42.680Z,16.90
2022-11-02T00:05:12.777Z,17.10
2022-11-02T00:07:40.046Z,16.40
2022-11-02T00:10:07.829Z,14.37
2022-11-02T00:12:34.676Z,12.67
2022-11-02T00:15:01.940Z,16.33
2022-11-02T00:17:29.714Z,15.07
2022-11-02T00:19:56.509Z,14.73
2022-11-02T00:22:23.607Z,15.40
2022-11-02T00:24:50.495Z,14.27
2022-11-02T00:27:17.390Z,18.60
2022-11-02T00:29:44.084Z,13.83
2022-11-02T00:32:10.769Z,16.60
2022-11-02T00:34:37.549Z,18.37
2022-11-02T00:37:04.254Z,15.40
2022-11-02T00:39:31.197Z,15.50
2022-11-02T00:41:57.878Z,14.73
2022-11-02T00:44:24.589Z,13.47
2022-11-02T00:46:51.712Z,16.17
2022-11-02T00:49:18.433Z,15.17
2022-11-02T00:51:45.151Z,14.17
2022-11-02T00:54:11.847Z,13.70
2022-11-02T00:56:39.153Z,15.67
2022-11-02T00:59:05.891Z,13.30
2022-11-02T01:01:32.719Z,15.73
2022-11-02T01:03:59.615Z,16.87
2022-11-02T01:06:26.336Z,15.30
2022-11-02T01:08:54.094Z,15.43
2022-11-02T01:11:22.801Z,11.97
2022-11-02T01:13:52.891Z,13.33
2022-11-02T01:16:20.208Z,13.23
2022-11-02T01:18:46.894Z,10.70
2022-11-02T01:21:13.618Z,11.33
2022-11-02T01:23:40.360Z,15.60
2022-11-02T01:26:09.056Z,16.27
2022-11-02T01:28:36.710Z,21.80
2022-11-02T01:31:03.896Z,13.60
2022-11-02T01:33:30.614Z,14.03
2022-11-02T01:35:57.444Z,11.80
2022-11-02T01:38:25.304Z,14.03
2022-11-02T01:40:52.044Z,13.53
2022-11-02T01:43:33.354Z,13.17
2022-11-02T01:46:12.017Z,12.13
2022-11-02T01:48:53.135Z,12.70
2022-11-02T01:51:28.660Z,17.20
2022-11-02T01:54:00.684Z,13.27
2022-11-02T01:56:31.750Z,15.90
2022-11-02T01:59:01.622Z,13.37
2022-11-02T02:01:29.007Z,13.77
2022-11-02T02:03:57.119Z,13.87
2022-11-02T02:06:28.248Z,16.80
2022-11-02T02:08:59.008Z,14.03
2022-11-02T02:11:34.043Z,14.50
2022-11-02T02:14:19.406Z,13.07
2022-11-02T02:17:12.230Z,14.67
2022-11-02T02:19:54.150Z,11.97
2022-11-02T02:22:43.356Z,16.93
2022-11-02T02:25:29.673Z,13.70
2022-11-02T02:28:08.191Z,17.27
2022-11-02T02:30:44.324Z,17.33
2022-11-02T02:33:28.226Z,15.87
2022-11-02T02:36:12.919Z,15.17
2022-11-02T02:38:51.732Z,16.87
2022-11-02T02:41:22.147Z,16.63
2022-11-02T02:43:57.310Z,17.23
2022-11-02T02:46:42.648Z,17.20
2022-11-02T02:49:15.710Z,20.40
2022-11-02T02:51:44.361Z,19.83
2022-11-02T02:54:23.273Z,21.77
2022-11-02T02:56:53.882Z,20.40
2022-11-02T02:59:40.909Z,24.70
2022-11-02T03:02:13.921Z,20.73
2022-11-02T03:04:40.724Z,27.00
2022-11-02T03:07:11.388Z,55.73
2022-11-02T03:09:48.684Z,33.53
2022-11-02T03:12:36.965Z,27.80
2022-11-02T03:15:19.835Z,24.30
2022-11-02T03:18:00.175Z,28.90
2022-11-02T03:21:05.520Z,35.33
2022-11-02T03:23:44.047Z,40.80
2022-11-02T03:26:30.404Z,30.63
2022-11-02T03:29:10.271Z,23.60
2022-11-02T03:31:47.538Z,32.37
2022-11-02T03:34:24.548Z,32.17
2022-11-02T03:37:27.613Z,25.13
2022-11-02T03:40:02.763Z,26.37
2022-11-02T03:42:32.994Z,18.90
2022-11-02T03:45:14.100Z,17.30
2022-11-02T03:47:44.198Z,26.77
2022-11-02T03:50:15.389Z,21.87
2022-11-02T03:52:46.330Z,45.00
2022-11-02T03:55:19.173Z,29.27
2022-11-02T03:57:49.053Z,45.40
2022-11-02T04:00:21.618Z,27.13
2022-11-02T04:02:52.325Z,26.33
2022-11-02T04:05:20.887Z,72.17
2022-11-02T04:08:27.775Z,46.67
2022-11-02T04:11:13.285Z,42.33
2022-11-02T04:13:59.414Z,47.90
2022-11-02T04:16:28.272Z,56.03
2022-11-02T04:19:16.444Z,49.33
2022-11-02T04:22:03.178Z,56.27
2022-11-02T04:24:48.607Z,48.33
2022-11-02T04:27:19.636Z,48.77
2022-11-02T04:29:47.550Z,41.57
2022-11-02T04:32:14.230Z,37.97
2022-11-02T04:34:40.958Z,41.80
2022-11-02T04:37:27.677Z,47.90
2022-11-02T04:39:54.942Z,44.77
2022-11-02T04:42:21.638Z,46.23
2022-11-02T04:44:48.347Z,38.83
2022-11-02T04:47:16.060Z,52.63
2022-11-02T04:49:42.917Z,42.40
2022-11-02T04:52:12.328Z,40.77
2022-11-02T04:54:39.091Z,49.70
2022-11-02T04:57:05.901Z,43.33
2022-11-02T04:59:33.836Z,56.10
2022-11-02T05:02:01.109Z,42.13
2022-11-02T05:04:31.062Z,42.17
2022-11-02T05:07:01.691Z,36.97
2022-11-02T05:09:28.884Z,38.07
2022-11-02T05:11:56.019Z,47.03
2022-11-02T05:14:23.404Z,38.67
2022-11-02T05:16:50.221Z,31.37
2022-11-02T05:19:16.982Z,40.20
2022-11-02T05:21:44.294Z,29.73
2022-11-02T05:24:10.976Z,20.27
2022-11-02T05:26:37.653Z,24.63
2022-11-02T05:29:08.068Z,23.77
2022-11-02T05:31:34.964Z,21.53
2022-11-02T05:34:01.692Z,19.63
2022-11-02T05:36:28.509Z,24.43
2022-11-02T05:38:56.136Z,17.47
2022-11-02T05:41:23.650Z,17.57
2022-11-02T05:43:50.359Z,19.80
2022-11-02T05:46:17.164Z,18.77
2022-11-02T05:48:43.870Z,16.83
2022-11-02T05:51:10.859Z,17.47
2022-11-02T05:53:38.515Z,16.60
2022-11-02T05:56:10.523Z,17.00
2022-11-02T05:58:40.602Z,17.07
2022-11-02T06:01:08.737Z,17.00
2022-11-02T06:03:36.658Z,17.47
2022-11-02T06:06:07.665Z,16.97
2022-11-02T06:08:36.087Z,15.27
2022-11-02T06:11:10.800Z,17.97
2022-11-02T06:13:38.395Z,16.43
2022-11-02T06:16:07.955Z,15.57
2022-11-02T06:18:34.864Z,16.53
2022-11-02T06:21:01.564Z,15.77
2022-11-02T06:23:31.289Z,16.63
2022-11-02T06:26:00.166Z,15.23
2022-11-02T06:28:27.914Z,22.23
2022-11-02T06:30:54.979Z,17.77
2022-11-02T06:33:22.209Z,19.00
2022-11-02T06:35:51.107Z,19.53
2022-11-02T06:38:18.534Z,17.63
2022-11-02T06:40:54.089Z,19.10
2022-11-02T06:43:25.030Z,18.60
2022-11-02T06:45:56.215Z,19.20
2022-11-02T06:48:23.874Z,19.67
2022-11-02T06:50:50.637Z,18.43
2022-11-02T06:53:18.411Z,19.10
2022-11-02T06:55:45.165Z,21.73
2022-11-02T06:58:11.856Z,17.27
2022-11-02T07:00:46.265Z,19.67
2022-11-02T07:03:13.085Z,24.40
2022-11-02T07:05:40.097Z,21.87
2022-11-02T07:08:06.903Z,16.33
2022-11-02T07:10:35.694Z,22.80
2022-11-02T07:13:02.952Z,18.07
2022-11-02T07:15:29.988Z,19.67
2022-11-02T07:17:56.723Z,19.10
2022-11-02T07:20:23.419Z,21.13
2022-11-02T07:22:55.256Z,16.93
2022-11-02T07:25:22.090Z,18.00
2022-11-02T07:27:48.801Z,18.87
2022-11-02T07:30:15.642Z,17.30
2022-11-02T07:32:46.470Z,17.27
2022-11-02T07:35:14.642Z,17.30
2022-11-02T07:37:41.894Z,17.87
2022-11-02T07:40:10.971Z,17.33
2022-11-02T07:42:44.984Z,20.07
2022-11-02T07:45:12.372Z,19.47
2022-11-02T07:47:46.609Z,16.27
2022-11-02T07:50:15.786Z,19.73
2022-11-02T07:52:53.991Z,16.23
2022-11-02T07:55:23.545Z,18.63
2022-11-02T07:58:13.618Z,16.40
2022-11-02T08:00:41.215Z,19.43
2022-11-02T08:03:09.887Z,18.23
2022-11-02T08:05:40.125Z,16.60
2022-11-02T08:08:10.769Z,16.40
2022-11-02T08:10:40.356Z,21.93
2022-11-02T08:13:15.314Z,18.03
2022-11-02T08:15:42.310Z,19.23
2022-11-02T08:18:18.795Z,18.03
2022-11-02T08:20:46.352Z,16.13
2022-11-02T08:23:14.084Z,17.40
2022-11-02T08:25:42.037Z,23.17
2022-11-02T08:28:13.907Z,18.33
2022-11-02T08:30:40.759Z,17.60
2022-11-02T08:33:11.748Z,13.73
2022-11-02T08:35:38.749Z,16.03
2022-11-02T08:38:07.800Z,12.90
2022-11-02T08:40:35.860Z,12.20
2022-11-02T08:43:08.668Z,13.87
2022-11-02T08:46:08.356Z,8.80
2022-11-02T08:48:24.137Z,9.70
2022-11-02T08:50:50.902Z,10.00
2022-11-02T08:53:17.965Z,11.87
2022-11-02T08:55:44.730Z,11.43
2022-11-02T08:58:11.484Z,11.93
2022-11-02T09:00:38.235Z,17.23
2022-11-02T09:03:13.218Z,15.27
2022-11-02T09:05:42.676Z,11.73
2022-11-02T09:08:20.471Z,12.53
2022-11-02T09:10:50.144Z,12.60
2022-11-02T09:13:25.148Z,12.53
2022-11-02T09:15:54.122Z,9.67
2022-11-02T09:18:21.108Z,11.07
2022-11-02T09:20:48.722Z,15.93
2022-11-02T09:23:18.589Z,15.17
2022-11-02T09:25:45.647Z,11.17
2022-11-02T09:28:13.130Z,14.47
2022-11-02T09:30:39.833Z,7.30
2022-11-02T09:33:07.263Z,12.53
2022-11-02T09:35:40.346Z,13.90
2022-11-02T09:38:07.547Z,10.87
2022-11-02T09:40:44.913Z,11.60
2022-11-02T09:43:17.657Z,13.90
2022-11-02T09:46:01.428Z,12.27
2022-11-02T09:48:35.829Z,9.80
2022-11-02T09:51:19.074Z,7.37
2022-11-02T09:53:54.882Z,10.37
2022-11-02T09:56:21.693Z,13.13
2022-11-02T09:59:01.868Z,13.03
2022-11-02T10:01:38.452Z,13.10
2022-11-02T10:04:44.235Z,12.67
2022-11-02T10:07:34.969Z,9.20
2022-11-02T10:10:22.004Z,15.73
2022-11-02T10:13:22.108Z,8.47
2022-11-02T10:15:56.793Z,8.33
2022-11-02T10:18:28.579Z,10.30
2022-11-02T10:20:59.027Z,13.57
2022-11-02T10:23:32.221Z,11.27
2022-11-02T10:26:00.917Z,11.00
2022-11-02T10:28:32.686Z,11.30
2022-11-02T10:31:02.399Z,8.03
2022-11-02T10:33:30.555Z,10.17
2022-11-02T10:36:17.596Z,12.20
2022-11-02T10:39:12.681Z,12.73
2022-11-02T10:42:16.297Z,6.93
2022-11-02T10:45:03.547Z,10.70
2022-11-02T10:48:01.542Z,12.00
2022-11-02T10:50:49.761Z,14.97
2022-11-02T10:53:40.078Z,12.20
2022-11-02T10:56:21.608Z,9.63
2022-11-02T10:58:57.357Z,10.27
2022-11-02T11:01:24.124Z,17.93
2022-11-02T11:03:59.816Z,8.17
2022-11-02T11:06:43.455Z,8.40
2022-11-02T11:09:25.568Z,10.57
2022-11-02T11:12:06.196Z,9.00
2022-11-02T11:20:30.520Z,14.50
2022-11-02T11:23:18.166Z,7.07
2022-11-02T11:25:53.867Z,10.33
2022-11-02T11:28:25.195Z,15.87
2022-11-02T11:31:05.618Z,13.00
2022-11-02T11:33:33.795Z,6.70
2022-11-02T11:36:01.096Z,11.38
2022-11-02T11:38:28.143Z,8.87
2022-11-02T11:40:58.831Z,11.65
2022-11-02T11:43:29.624Z,12.30
2022-11-02T11:46:07.029Z,10.33
2022-11-02T11:48:50.725Z,8.90
2022-11-02T11:51:42.422Z,7.28
2022-11-02T11:54:21.201Z,9.35
2022-11-02T11:56:49.559Z,9.52
2022-11-02T11:59:46.373Z,11.23
2022-11-02T12:02:27.339Z,10.13
2022-11-02T12:05:16.023Z,8.48
2022-11-02T12:08:18.115Z,10.70
2022-11-02T12:11:03.132Z,5.88
2022-11-02T12:13:54.091Z,11.37
2022-11-02T12:16:23.797Z,7.23
2022-11-02T12:19:33.876Z,8.80
2022-11-02T12:22:09.957Z,10.40
2022-11-02T12:24:48.608Z,14.70
2022-11-02T12:27:41.579Z,9.53
2022-11-02T12:30:19.925Z,9.60
2022-11-02T12:32:53.281Z,10.27
2022-11-02T12:35:35.079Z,11.97
2022-11-02T12:38:07.958Z,11.13
2022-11-02T12:41:01.827Z,7.50
2022-11-02T12:43:47.314Z,10.70
2022-11-02T12:46:48.971Z,9.23
2022-11-02T12:49:36.229Z,10.05
2022-11-02T12:52:43.296Z,10.35
2022-11-02T12:55:17.888Z,7.55
2022-11-02T12:57:46.309Z,11.68
2022-11-02T13:00:20.120Z,13.05
2022-11-02T13:03:00.014Z,9.73
2022-11-02T13:05:34.473Z,8.07
2022-11-02T13:08:09.930Z,8.10
2022-11-02T13:10:47.170Z,6.35
2022-11-02T13:13:27.065Z,11.05
2022-11-02T13:15:54.708Z,10.32
2022-11-02T13:18:31.046Z,10.05
2022-11-02T13:21:00.625Z,12.15
2022-11-02T13:23:43.737Z,9.02
2022-11-02T13:26:38.020Z,12.27
2022-11-02T13:29:40.580Z,10.75
2022-11-02T13:32:31.039Z,9.23
2022-11-02T13:35:05.597Z,10.68
2022-11-02T13:37:40.263Z,9.07
2022-11-02T13:40:18.225Z,8.70
2022-11-02T13:43:09.674Z,10.02
2022-11-02T13:46:12.345Z,12.23
2022-11-02T13:48:58.365Z,8.80
2022-11-02T13:51:50.969Z,6.55
2022-11-02T13:54:26.005Z,9.87
2022-11-02T13:56:55.908Z,13.07
2022-11-02T13:59:22.701Z,11.73
2022-11-02T14:01:52.808Z,10.77
2022-11-02T14:04:20.842Z,8.27
2022-11-02T14:06:52.911Z,10.07
2022-11-02T14:09:38.785Z,9.47
2022-11-02T14:12:17.923Z,9.32
2022-11-02T14:14:45.623Z,7.78
2022-11-02T14:17:17.690Z,8.07
2022-11-02T14:19:44.494Z,5.32
2022-11-02T14:22:16.780Z,9.60
2022-11-02T14:24:43.439Z,11.57
2022-11-02T14:27:13.242Z,10.30
2022-11-02T14:29:44.876Z,13.40
2022-11-02T14:32:20.706Z,10.13
2022-11-02T14:35:00.587Z,8.35
2022-11-02T14:37:53.897Z,10.68
2022-11-02T14:40:35.631Z,11.77
2022-11-02T14:43:05.644Z,8.13
2022-11-02T14:46:27.278Z,7.75
2022-11-02T14:48:57.403Z,7.87
2022-11-02T14:51:32.834Z,13.50
2022-11-02T14:54:01.787Z,6.65
2022-11-02T14:57:04.251Z,12.77
2022-11-02T14:59:40.051Z,12.88
2022-11-02T15:02:15.964Z,6.40
2022-11-02T15:04:52.811Z,10.73
2022-11-02T15:07:34.797Z,9.57
2022-11-02T15:10:17.436Z,10.10
2022-11-02T15:12:46.833Z,10.50
2022-11-02T15:15:34.666Z,9.82
2022-11-02T15:18:24.370Z,8.30
2022-11-02T15:21:13.100Z,11.02
2022-11-02T15:23:57.641Z,7.33
2022-11-02T15:26:51.490Z,5.00
2022-11-02T15:29:48.177Z,8.07
2022-11-02T15:32:22.818Z,4.90
2022-11-02T15:34:52.221Z,6.67
2022-11-02T15:37:23.382Z,7.60
2022-11-02T15:40:00.205Z,7.07
2022-11-02T15:42:29.925Z,9.30
2022-11-02T15:45:26.840Z,11.37
2022-11-02T15:48:13.465Z,8.10
2022-11-02T15:51:07.957Z,13.20
2022-11-02T15:53:42.186Z,14.63
2022-11-02T15:56:25.257Z,12.80
2022-11-02T15:59:03.928Z,24.03
2022-11-02T16:01:30.844Z,22.50
2022-11-02T16:04:02.060Z,12.40
2022-11-02T16:06:36.927Z,11.93
2022-11-02T16:09:32.958Z,16.23
2022-11-02T16:12:16.858Z,11.20
2022-11-02T16:14:45.390Z,14.33
2022-11-02T16:17:28.710Z,11.07
2022-11-02T16:20:16.826Z,13.20
2022-11-02T16:22:59.693Z,13.33
2022-11-02T16:25:42.598Z,11.23
2022-11-02T16:28:16.461Z,12.23
2022-11-02T16:30:43.218Z,18.60
2022-11-02T16:33:11.624Z,15.47
2022-11-02T16:35:38.480Z,24.23
2022-11-02T16:38:05.650Z,26.27
2022-11-02T16:40:32.851Z,23.77
2022-11-02T16:43:00.115Z,17.10
2022-11-02T16:45:42.218Z,21.70
2022-11-02T16:48:28.845Z,17.33
2022-11-02T16:51:15.037Z,17.77
2022-11-02T16:53:42.280Z,16.23
2022-11-02T16:56:28.897Z,16.57
2022-11-02T16:59:04.946Z,22.40
2022-11-02T17:01:40.253Z,22.07
2022-11-02T17:04:26.776Z,27.37
2022-11-02T17:07:23.919Z,23.00
2022-11-02T17:09:56.530Z,18.67
2022-11-02T17:12:39.381Z,23.80
2022-11-02T17:15:22.450Z,18.60
2022-11-02T17:17:49.249Z,19.13
2022-11-02T17:20:22.908Z,19.77
2022-11-02T17:22:58.838Z,18.77
2022-11-02T17:25:32.954Z,19.57
2022-11-02T17:28:02.633Z,22.33
2022-11-02T17:30:35.366Z,23.27
2022-11-02T17:33:12.227Z,27.20
2022-11-02T17:35:48.936Z,18.83
2022-11-02T17:38:17.090Z,18.73
2022-11-02T17:40:43.887Z,22.43
2022-11-02T17:43:10.672Z,21.53
2022-11-02T17:45:40.259Z,25.47
2022-11-02T17:48:11.118Z,24.50
2022-11-02T17:50:39.714Z,22.43
2022-11-02T17:53:14.056Z,19.37
2022-11-02T17:55:40.956Z,19.33
2022-11-02T17:58:08.131Z,23.43
2022-11-02T18:00:36.794Z,22.23
2022-11-02T18:03:04.415Z,23.07
2022-11-02T18:05:37.975Z,21.90
2022-11-02T18:08:13.360Z,20.13
2022-11-02T18:10:42.133Z,32.60
2022-11-02T18:13:23.727Z,27.03
2022-11-02T18:15:50.592Z,28.77
2022-11-02T18:18:17.415Z,27.37
2022-11-02T18:20:44.146Z,24.67
2022-11-02T18:23:16.640Z,23.50
2022-11-02T18:25:43.828Z,23.90
2022-11-02T18:28:10.742Z,24.70
2022-11-02T18:30:41.261Z,24.00
2022-11-02T18:33:12.260Z,22.73
2022-11-02T18:35:40.470Z,23.53
2022-11-02T18:38:07.548Z,25.30
2022-11-02T18:40:35.763Z,23.17
2022-11-02T18:43:02.827Z,26.73
2022-11-02T18:48:01.760Z,23.97
2022-11-02T18:50:28.658Z,28.27
2022-11-02T18:52:55.335Z,29.50
2022-11-02T18:55:22.039Z,20.97
2022-11-02T18:57:50.953Z,24.17
2022-11-02T19:00:17.953Z,26.97
2022-11-02T19:02:44.630Z,18.97
2022-11-02T19:05:31.307Z,22.93
2022-11-02T19:08:20.901Z,26.87
2022-11-02T19:10:48.302Z,19.40
2022-11-02T19:13:15.460Z,20.17
2022-11-02T19:15:42.884Z,19.07
2022-11-02T19:18:09.995Z,20.90
2022-11-02T19:20:36.755Z,18.50
2022-11-02T19:23:03.509Z,19.43
2022-11-02T19:25:30.227Z,21.57
2022-11-02T19:27:57.010Z,18.47
2022-11-02T19:30:23.915Z,23.23
2022-11-02T19:32:50.636Z,21.43
2022-11-02T19:35:17.349Z,14.60
2022-11-02T19:37:44.219Z,18.53
2022-11-02T19:40:11.331Z,18.50
2022-11-02T19:42:39.786Z,17.10
2022-11-02T19:45:07.165Z,19.17
2022-11-02T19:47:34.454Z,22.10
2022-11-02T19:50:01.139Z,21.10
2022-11-02T19:52:28.029Z,22.10
2022-11-02T19:54:54.782Z,20.60
2022-11-02T19:57:21.478Z,23.30
2022-11-02T19:59:48.252Z,25.17
2022-11-02T20:02:15.786Z,22.00
2022-11-02T20:04:44.337Z,21.43
2022-11-02T20:07:11.331Z,21.90
2022-11-02T20:09:38.720Z,21.33
2022-11-02T20:12:07.555Z,28.33
2022-11-02T20:14:36.384Z,20.87
2022-11-02T20:17:29.637Z,27.67
2022-11-02T20:19:50.041Z,30.70
2022-11-02T20:22:18.453Z,24.90
2022-11-02T20:24:45.213Z,24.27
2022-11-02T20:27:13.906Z,27.67
2022-11-02T20:29:40.744Z,25.77
2022-11-02T20:32:10.269Z,22.03
2022-11-02T20:34:37.091Z,29.27
2022-11-02T20:37:05.160Z,25.80
2022-11-02T20:39:31.901Z,29.90
2022-11-02T20:41:58.655Z,23.10
2022-11-02T20:44:25.409Z,26.17
2022-11-02T20:46:53.568Z,23.10
2022-11-02T20:49:36.327Z,23.57
2022-11-02T20:52:08.059Z,26.13
2022-11-02T20:54:34.801Z,23.53
2022-11-02T20:57:01.647Z,24.67
2022-11-02T20:59:28.539Z,23.43
2022-11-02T21:01:55.454Z,22.80
2022-11-02T21:04:22.310Z,21.73
2022-11-02T21:06:50.183Z,23.10
2022-11-02T21:09:17.815Z,25.27
2022-11-02T21:12:03.060Z,27.77
2022-11-02T21:14:29.987Z,30.23
2022-11-02T21:16:56.762Z,22.83
2022-11-02T21:19:23.556Z,19.80
2022-11-02T21:21:53.771Z,22.63
2022-11-02T21:24:23.389Z,20.07
2022-11-02T21:26:50.191Z,20.20
2022-11-02T21:29:16.921Z,23.40
2022-11-02T21:31:43.676Z,21.43
2022-11-02T21:34:10.400Z,22.73
2022-11-02T21:36:37.088Z,23.40
2022-11-02T21:39:03.842Z,20.53
2022-11-02T21:41:32.794Z,22.43
2022-11-02T21:43:59.489Z,19.23
2022-11-02T21:46:26.279Z,24.00
2022-11-02T21:48:54.537Z,19.60
2022-11-02T21:51:22.348Z,19.93
2022-11-02T21:53:50.496Z,23.03
2022-11-02T21:56:20.252Z,18.00
2022-11-02T21:58:47.925Z,18.33
2022-11-02T22:01:36.956Z,14.93
2022-11-02T22:04:04.492Z,18.43
2022-11-02T22:06:32.109Z,21.03
2022-11-02T22:08:59.935Z,23.27
2022-11-02T22:11:27.303Z,17.83
2022-11-02T22:13:55.459Z,16.33
2022-11-02T22:16:25.142Z,19.83
2022-11-02T22:18:55.162Z,16.50
2022-11-02T22:21:22.694Z,17.57
2022-11-02T22:23:50.407Z,17.13
2022-11-02T22:26:22.041Z,17.80
2022-11-02T22:28:49.568Z,15.67
2022-11-02T22:31:20.409Z,15.60
2022-11-02T22:33:49.598Z,17.13
2022-11-02T22:36:18.876Z,17.00
2022-11-02T22:38:48.604Z,20.47
2022-11-02T22:41:16.135Z,21.43
2022-11-02T22:43:43.176Z,25.33
2022-11-02T22:46:10.774Z,30.37
2022-11-02T22:48:37.724Z,23.07
2022-11-02T22:51:06.059Z,29.63
2022-11-02T22:53:33.296Z,28.93
2022-11-02T22:56:14.044Z,26.40
2022-11-02T22:58:45.282Z,25.93
2022-11-02T23:01:23.534Z,21.97
2022-11-02T23:03:50.856Z,22.00
2022-11-02T23:06:21.116Z,25.73
2022-11-02T23:08:49.331Z,20.53
2022-11-02T23:11:21.316Z,22.83
2022-11-02T23:13:57.359Z,19.57
2022-11-02T23:16:30.220Z,35.50
2022-11-02T23:19:27.649Z,28.27
2022-11-02T23:22:27.710Z,27.67
2022-11-02T23:25:12.067Z,26.00
2022-11-02T23:28:02.195Z,25.70
2022-11-02T23:30:50.399Z,24.27
2022-11-02T23:33:18.140Z,17.10
2022-11-02T23:36:03.265Z,20.50
2022-11-02T23:38:50.577Z,20.60
2022-11-02T23:41:18.766Z,18.70
2022-11-02T23:43:46.365Z,22.23
2022-11-02T23:46:13.500Z,20.27
2022-11-02T23:48:45.877Z,20.87
2022-11-02T23:51:33.627Z,19.27
2022-11-02T23:54:18.879Z,20.47
2022-11-02T23:56:45.650Z,20.23
2022-11-02T23:59:17.034Z,24.00
